Hlavní strana
METAR-TAF:

METAR-TAF

Letiště :

Chesapeake Regional Airport

Norfolk, Virginie, Spojené státy americké

zeměpisná šířka: 36-39-56N, zeměpisná délka: 076-19-14W, výška: 6 m

Aktuální stav počasí

Zpráva byla vytvořena před 13 minutami, v 17:55 UTC
Západní vítr 14 kt s nárazy do 23 kt
Teplota 9°C
Vlhkost vzduchu 34%
Tlak 1012 hPa
Viditelnost: 16.1 km
Jasno

METAR: KCPK 271755Z AUTO 26014G23KT 10SM CLR 09/M06 A2987 RMK AO2 T00861057 10090 20049

Čas: 13:08 (18:08 UTC)


TAF: chybějící

Stav a předpovědi počasí z více než 4 000 letišť (zprávy METAR a TAF).

Červené a žluté tečky na mapě představují dostupné meteorologické stanice.

Když kurzor umístíte na tečku, zobrazí se název stanice.

Pak kliknutím zobrazíte stav a předpověď počasí.

Chcete-li změnit mapu, kliknutím na zelené tlačítko se znaménkem +mapu přiblížíte, kliknutím na zelené tlačítko se znaménkem – mapu oddálíte a kliknutím na zelené šipky přejdete na sousední mapy.


METAR-TAF: